Time;durP1;ratioP1;P1;durP2;ratioP2;P2;SDS_P1;SDS_P2;PMS_P1;PMS_P2;Temp;Humidity;BMP_temperature;BMP_pressure;BME280_temperature;BME280_humidity;BME280_pressure;Samples;Min_cycle;Max_cycle;Signal;HPM_P1;HPM_P2
2022/01/24 00:00:13;;;;;;;8.15;5.18;;;;;;;-144.19;100.00;79125.19;6128875;23;20104;-88
2022/01/24 00:02:42;;;;;;;7.32;4.80;;;;;;;-144.19;100.00;79119.28;6128550;23;20018;-88
2022/01/24 00:05:10;;;;;;;8.57;5.40;;;;;;;-144.19;100.00;79127.16;6128803;23;20244;-88
2022/01/24 00:07:37;;;;;;;8.65;5.60;;;;;;;-144.19;100.00;79115.34;6128981;23;20025;-89
2022/01/24 00:10:08;;;;;;;8.20;5.43;;;;;;;-144.19;100.00;79127.16;6129104;23;20028;-91
2022/01/24 00:12:46;;;;;;;8.80;5.65;;;;;;;-144.19;100.00;79138.97;6154706;23;20025;-88
2022/01/24 00:15:23;;;;;;;9.00;5.90;;;;;;;-144.19;100.00;79142.91;6130131;23;20022;-87
2022/01/24 00:18:02;;;;;;;9.93;5.97;;;;;;;-144.19;100.00;79144.88;6127810;23;20030;-85
2022/01/24 00:28:28;;;;;;;8.32;5.55;;;;;;;-144.19;100.00;79150.78;6154395;23;20021;-86
2022/01/24 00:30:55;;;;;;;8.20;5.88;;;;;;;-144.19;100.00;79150.78;6154586;23;20398;-86
2022/01/24 00:33:21;;;;;;;8.55;6.15;;;;;;;-144.19;100.00;79162.63;6153662;23;20406;-85
2022/01/24 00:35:50;;;;;;;8.37;5.80;;;;;;;-144.19;100.00;79162.63;6128673;23;20039;-88
2022/01/24 00:38:17;;;;;;;9.57;6.82;;;;;;;-144.19;100.00;79146.84;6153940;23;20025;-85
2022/01/24 00:40:46;;;;;;;10.75;6.07;;;;;;;-144.19;100.00;79148.81;6128849;23;20021;-87
2022/01/24 00:43:24;;;;;;;8.02;5.55;;;;;;;-144.19;100.00;79146.84;6128554;23;20096;-88
2022/01/24 00:46:00;;;;;;;9.00;5.45;;;;;;;-144.19;100.00;79154.72;6128424;23;20025;-88
2022/01/24 00:56:50;;;;;;;8.13;5.03;;;;;;;-144.19;100.00;79162.63;6154278;23;20100;-88
2022/01/24 00:59:16;;;;;;;6.70;4.43;;;;;;;-144.19;100.00;79160.66;6147027;23;20025;-88
2022/01/24 01:01:43;;;;;;;7.80;5.30;;;;;;;-144.19;100.00;79158.69;6152743;23;20022;-88
2022/01/24 01:04:09;;;;;;;6.45;4.47;;;;;;;-144.19;100.00;79158.69;6152780;23;20025;-87
2022/01/24 01:06:38;;;;;;;10.03;5.53;;;;;;;-144.19;100.00;79158.69;6152517;23;20025;-85
2022/01/24 01:20:04;;;;;;;8.80;5.63;;;;;;;-144.19;100.00;79154.72;6153711;23;20022;-87
2022/01/24 01:22:30;;;;;;;7.53;4.68;;;;;;;-144.19;100.00;79144.88;6153417;23;20439;-87
2022/01/24 01:24:57;;;;;;;12.43;6.73;;;;;;;-144.19;100.00;79150.78;6152390;23;20018;-87
2022/01/24 01:27:32;;;;;;;9.95;5.78;;;;;;;-144.19;100.00;79150.78;6152301;23;20017;-86
2022/01/24 01:30:04;;;;;;;9.13;5.75;;;;;;;-144.19;100.00;79154.72;6152884;23;20028;-86
2022/01/24 01:52:19;;;;;;;7.50;5.22;;;;;;;-144.19;100.00;79142.91;6156125;23;20021;-87
2022/01/24 01:56:54;;;;;;;10.93;6.40;;;;;;;-144.19;100.00;79154.72;6156194;23;20043;-88
2022/01/24 01:59:20;;;;;;;10.13;6.33;;;;;;;-144.19;100.00;79154.72;6153610;23;20024;-87
2022/01/24 02:01:46;;;;;;;10.27;6.27;;;;;;;-144.19;100.00;79142.91;6154596;23;20036;-88
2022/01/24 02:04:14;;;;;;;9.13;5.70;;;;;;;-144.19;100.00;79142.91;6154859;23;20048;-88
2022/01/24 02:06:43;;;;;;;9.55;6.30;;;;;;;-144.19;100.00;79138.97;6154682;23;20261;-89
2022/01/24 02:09:10;;;;;;;10.63;6.35;;;;;;;-144.19;100.00;79140.94;6156378;23;20026;-88
2022/01/24 02:11:38;;;;;;;9.10;6.63;;;;;;;-144.19;100.00;79137.00;6155115;23;20032;-89
2022/01/24 02:14:10;;;;;;;10.60;6.22;;;;;;;-144.19;100.00;79131.09;6154841;23;20474;-90
2022/01/24 02:16:57;;;;;;;11.23;6.20;;;;;;;-144.19;100.00;79142.91;6154691;23;20465;-85
2022/01/24 02:19:33;;;;;;;10.13;6.55;;;;;;;-144.19;100.00;79135.03;6155941;23;20101;-88
2022/01/24 02:24:32;;;;;;;11.20;6.22;;;;;;;-144.19;100.00;79135.03;6155497;23;20029;-87
2022/01/24 02:26:59;;;;;;;13.10;7.20;;;;;;;-144.19;100.00;79142.91;6154064;23;20014;-87
2022/01/24 02:32:12;;;;;;;12.32;7.30;;;;;;;-144.19;100.00;79135.03;6156057;23;20022;-92
2022/01/24 02:34:41;;;;;;;;;;;;;;;-144.19;100.00;79138.97;6154310;23;20040;-86
2022/01/24 02:37:15;;;;;;;13.35;7.47;;;;;;;-144.19;100.00;79140.94;6153940;23;19917;-87
2022/01/24 02:50:47;;;;;;;14.50;7.63;;;;;;;-144.19;100.00;79142.91;6155454;23;20031;-88
2022/01/24 02:53:14;;;;;;;12.52;7.38;;;;;;;-144.19;100.00;79119.28;6153620;23;20022;-89
2022/01/24 02:55:41;;;;;;;13.70;8.02;;;;;;;-144.19;100.00;79113.38;6153401;23;20025;-86
2022/01/24 02:58:09;;;;;;;12.88;7.50;;;;;;;-144.19;100.00;79107.47;6153330;23;20366;-88
2022/01/24 03:00:36;;;;;;;;;;;;;;;-144.19;100.00;79113.38;6154492;23;20052;-89
2022/01/24 03:03:05;;;;;;;12.88;7.45;;;;;;;-144.19;100.00;79111.41;6155452;23;20026;-85
2022/01/24 03:05:33;;;;;;;10.82;7.43;;;;;;;-144.19;100.00;79111.41;6154013;23;20336;-88
2022/01/24 03:07:59;;;;;;;15.38;8.23;;;;;;;-144.19;100.00;79111.41;6154045;23;20040;-87
2022/01/24 03:10:30;;;;;;;10.40;7.63;;;;;;;-144.19;100.00;79111.41;6154308;23;20018;-89
2022/01/24 03:13:17;;;;;;;11.82;7.30;;;;;;;-144.19;100.00;79111.41;6154105;23;20375;-88
2022/01/24 03:15:47;;;;;;;13.10;7.93;;;;;;;-144.19;100.00;79107.47;6155619;23;20027;-89
2022/01/24 03:18:15;;;;;;;13.65;8.20;;;;;;;-144.19;100.00;79101.56;6153641;23;20017;-87
2022/01/24 03:20:41;;;;;;;;;;;;;;;-144.19;100.00;79109.44;6154540;23;20355;-88
2022/01/24 03:23:08;;;;;;;13.00;7.60;;;;;;;-144.19;100.00;79105.50;6153244;23;19916;-87
2022/01/24 03:25:34;;;;;;;11.38;7.13;;;;;;;-144.19;100.00;79103.53;6154155;23;20355;-87
2022/01/24 03:28:03;;;;;;;9.63;6.27;;;;;;;-144.19;100.00;79105.50;6153713;23;20036;-88
2022/01/24 03:30:30;;;;;;;12.63;7.97;;;;;;;-144.19;100.00;79103.53;6154133;23;20238;-86
2022/01/24 03:32:57;;;;;;;;;;;;;;;-144.19;100.00;79103.53;6154299;23;20025;-89
2022/01/24 03:35:23;;;;;;;11.45;6.53;;;;;;;-144.19;100.00;79111.41;6155473;23;19916;-88
2022/01/24 03:37:50;;;;;;;13.30;8.23;;;;;;;-144.19;100.00;79111.41;6155594;23;20367;-88
2022/01/24 03:40:16;;;;;;;12.77;8.37;;;;;;;-144.19;100.00;79111.41;6154001;23;20284;-89
2022/01/24 03:42:43;;;;;;;13.07;8.27;;;;;;;-144.19;100.00;79111.41;6153695;23;20081;-86
2022/01/24 03:45:10;;;;;;;15.55;8.80;;;;;;;-144.19;100.00;79105.50;6153435;23;20104;-88
2022/01/24 03:50:07;;;;;;;12.18;7.63;;;;;;;-144.19;100.00;79107.47;6155262;23;20488;-87
2022/01/24 03:52:34;;;;;;;11.95;7.15;;;;;;;-144.19;100.00;79089.72;6154232;23;20418;-87
2022/01/24 03:55:03;;;;;;;12.82;7.28;;;;;;;-144.19;100.00;79103.53;6154317;23;20021;-86
2022/01/24 03:57:29;;;;;;;12.15;7.57;;;;;;;-144.19;100.00;79095.66;6153712;23;20022;-87
2022/01/24 03:59:55;;;;;;;12.10;7.80;;;;;;;-144.19;100.00;79097.63;6155807;23;20021;-89
2022/01/24 04:02:24;;;;;;;13.77;8.00;;;;;;;-144.19;100.00;79089.72;6129924;23;20018;-89
2022/01/24 04:04:52;;;;;;;11.43;7.55;;;;;;;-144.19;100.00;79091.72;6129915;23;20030;-88
2022/01/24 04:07:18;;;;;;;12.38;7.85;;;;;;;-144.19;100.00;79091.72;6129618;23;20022;-88
2022/01/24 04:09:45;;;;;;;9.90;6.30;;;;;;;-144.19;100.00;79077.91;6130364;23;20021;-88
2022/01/24 04:12:13;;;;;;;11.50;7.57;;;;;;;-144.19;100.00;79087.78;6129876;23;20022;-87
2022/01/24 04:14:54;;;;;;;11.55;7.18;;;;;;;-144.19;100.00;79087.78;6154933;23;20017;-87
2022/01/24 04:17:25;;;;;;;11.43;7.35;;;;;;;-144.19;100.00;79091.72;6129116;23;20020;-86
2022/01/24 04:22:36;;;;;;;11.32;6.47;;;;;;;-144.19;100.00;79083.81;6155087;23;20354;-87
2022/01/24 04:25:05;;;;;;;13.30;7.82;;;;;;;-144.19;100.00;79073.97;6129410;23;20481;-88
2022/01/24 04:27:31;;;;;;;12.25;7.68;;;;;;;-144.19;100.00;79089.72;6129563;23;20018;-88
2022/01/24 04:29:58;;;;;;;10.60;6.93;;;;;;;-144.19;100.00;79091.72;6128841;23;20480;-89
2022/01/24 04:32:24;;;;;;;10.90;6.85;;;;;;;-144.19;100.00;79097.63;6128672;23;20017;-86
2022/01/24 04:34:51;;;;;;;10.98;6.47;;;;;;;-144.19;100.00;79101.56;6129532;23;20021;-89
2022/01/24 04:37:17;;;;;;;11.80;7.73;;;;;;;-144.19;100.00;79099.59;6129469;23;20060;-86
2022/01/24 04:39:44;;;;;;;11.48;7.30;;;;;;;-144.19;100.00;79091.72;6129165;23;20466;-87
2022/01/24 04:42:22;;;;;;;11.00;6.60;;;;;;;-144.19;100.00;79089.72;6129337;23;20197;-88
2022/01/24 04:45:09;;;;;;;11.60;7.13;;;;;;;-144.19;100.00;79091.72;6129830;23;20021;-88
2022/01/24 04:50:27;;;;;;;12.65;7.28;;;;;;;-144.19;100.00;79089.72;6129540;23;20300;-87
2022/01/24 04:51:30;;;;;;;10.95;7.32;;;;;;;-144.19;100.00;79103.53;6154037;23;20092;-88
2022/01/24 04:56:05;;;;;;;9.77;6.35;;;;;;;-144.19;100.00;79095.66;6158204;23;20021;-86
2022/01/24 04:58:42;;;;;;;12.88;7.22;;;;;;;-144.19;100.00;79095.66;6142518;23;20017;-87
2022/01/24 05:01:08;;;;;;;10.30;7.03;;;;;;;-144.19;100.00;79099.59;6153060;23;20026;-88
2022/01/24 05:03:35;;;;;;;10.65;7.13;;;;;;;-144.19;100.00;79103.53;6153033;23;20335;-88
2022/01/24 05:06:01;;;;;;;10.57;6.73;;;;;;;-144.19;100.00;79095.66;6153775;23;20024;-89
2022/01/24 05:08:28;;;;;;;10.30;6.50;;;;;;;-144.19;100.00;79095.66;6153980;23;20100;-88
2022/01/24 05:11:12;;;;;;;11.07;6.90;;;;;;;-144.19;100.00;79103.53;6153780;23;20717;-85
2022/01/24 05:24:19;;;;;;;11.97;7.93;;;;;;;-144.19;100.00;79095.66;6153916;23;20027;-88
2022/01/24 05:26:46;;;;;;;11.27;7.15;;;;;;;-144.19;100.00;79097.63;6153240;23;20407;-88
2022/01/24 05:29:13;;;;;;;13.10;7.70;;;;;;;-144.19;100.00;79103.53;6152224;23;20018;-88
2022/01/24 05:31:40;;;;;;;11.70;6.93;;;;;;;-144.19;100.00;79103.53;6152202;23;20028;-88
2022/01/24 05:34:06;;;;;;;13.98;7.68;;;;;;;-144.19;100.00;79107.47;6152093;23;20351;-87
2022/01/24 05:36:33;;;;;;;11.60;7.00;;;;;;;-144.19;100.00;79099.59;6153774;23;20021;-88
2022/01/24 05:39:00;;;;;;;12.30;7.22;;;;;;;-144.19;100.00;79093.69;6152087;23;20017;-88
2022/01/24 05:41:27;;;;;;;11.20;6.72;;;;;;;-144.19;100.00;79089.72;6152473;23;20021;-89
2022/01/24 05:43:54;;;;;;;11.73;7.72;;;;;;;-144.19;100.00;79091.72;6152316;23;20032;-87
2022/01/24 05:46:20;;;;;;;11.88;7.45;;;;;;;-144.19;100.00;79093.69;6153226;23;20013;-90
2022/01/24 05:48:47;;;;;;;12.73;7.45;;;;;;;-144.19;100.00;79089.72;6153461;23;20025;-88
2022/01/24 05:51:14;;;;;;;13.30;8.52;;;;;;;-144.19;100.00;79095.66;6153670;23;20032;-88
2022/01/24 05:53:40;;;;;;;11.30;7.40;;;;;;;-144.19;100.00;79095.66;6152697;23;20021;-87
2022/01/24 05:56:18;;;;;;;11.73;7.43;;;;;;;-144.19;100.00;79091.72;6153171;23;20705;-88
2022/01/24 05:58:44;;;;;;;13.02;8.10;;;;;;;-144.19;100.00;79091.72;6152438;23;20498;-89
2022/01/24 06:01:11;;;;;;;10.07;7.47;;;;;;;-144.19;100.00;79103.53;6153286;23;20022;-87
2022/01/24 06:03:38;;;;;;;12.52;7.22;;;;;;;-144.19;100.00;79107.47;6153212;23;20022;-87
2022/01/24 06:06:07;;;;;;;11.40;7.72;;;;;;;-144.19;100.00;79109.44;6153579;23;20025;-88
2022/01/24 06:08:34;;;;;;;12.80;7.32;;;;;;;-144.19;100.00;79107.47;6153202;23;20032;-86
2022/01/24 06:11:01;;;;;;;;;;;;;;;-144.19;100.00;79111.41;6153705;23;20017;-88
2022/01/24 06:13:28;;;;;;;11.43;7.00;;;;;;;-144.19;100.00;79115.34;6153589;23;19939;-86
2022/01/24 06:15:54;;;;;;;11.88;7.57;;;;;;;-144.19;100.00;79115.34;6153158;23;20459;-88
2022/01/24 06:18:25;;;;;;;12.38;7.30;;;;;;;-144.19;100.00;79119.28;6153897;23;20028;-88
2022/01/24 06:20:53;;;;;;;11.20;7.32;;;;;;;-144.19;100.00;79107.47;6155260;23;20097;-86
2022/01/24 06:23:20;;;;;;;10.88;7.05;;;;;;;-144.19;100.00;79115.34;6153837;23;20538;-88
2022/01/24 06:25:46;;;;;;;12.25;7.93;;;;;;;-144.19;100.00;79119.28;6154053;23;20022;-86
2022/01/24 06:28:13;;;;;;;10.50;6.85;;;;;;;-144.19;100.00;79119.28;6153635;23;20039;-88
2022/01/24 06:30:39;;;;;;;11.77;7.55;;;;;;;-144.19;100.00;79119.28;6153904;23;20542;-86
2022/01/24 06:33:06;;;;;;;12.90;7.22;;;;;;;-144.19;100.00;79117.31;6153119;23;20017;-86
2022/01/24 06:35:32;;;;;;;11.97;7.63;;;;;;;-144.19;100.00;79117.31;6153921;23;20028;-88
2022/01/24 06:37:58;;;;;;;14.23;8.02;;;;;;;-144.19;100.00;79119.28;6155169;23;20315;-87
2022/01/24 06:40:25;;;;;;;11.10;6.82;;;;;;;-144.19;100.00;79115.34;6153608;23;20024;-87
2022/01/24 06:42:51;;;;;;;11.00;7.00;;;;;;;-144.19;100.00;79123.22;6153687;23;20018;-87
2022/01/24 06:45:17;;;;;;;12.07;7.87;;;;;;;-144.19;100.00;79119.28;6153516;23;20032;-87
2022/01/24 06:47:44;;;;;;;13.77;7.63;;;;;;;-144.19;100.00;79123.22;6154074;23;20037;-90
2022/01/24 06:50:11;;;;;;;14.20;8.27;;;;;;;-144.19;100.00;79123.22;6154388;23;20358;-89
2022/01/24 06:52:37;;;;;;;12.57;7.65;;;;;;;-144.19;100.00;79131.09;6154123;23;20047;-89
2022/01/24 06:55:04;;;;;;;12.40;7.30;;;;;;;-144.19;100.00;79131.09;6154641;23;20100;-88
2022/01/24 06:57:31;;;;;;;11.00;7.18;;;;;;;-144.19;100.00;79138.97;6154612;23;20085;-91
2022/01/24 06:59:57;;;;;;;11.20;7.43;;;;;;;-144.19;100.00;79138.97;6129468;23;20029;-89
2022/01/24 07:02:23;;;;;;;11.30;6.80;;;;;;;-144.19;100.00;79138.97;6129791;23;20257;-89
2022/01/24 07:04:50;;;;;;;11.82;7.25;;;;;;;-144.19;100.00;79138.97;6154833;23;20025;-88
2022/01/24 07:07:19;;;;;;;12.73;7.78;;;;;;;-144.19;100.00;79142.91;6129814;23;20022;-88
2022/01/24 07:09:45;;;;;;;13.20;7.88;;;;;;;-144.19;100.00;79148.81;6129740;23;20049;-87
2022/01/24 07:12:11;;;;;;;10.43;6.77;;;;;;;-144.19;100.00;79140.94;6128983;23;20028;-89
2022/01/24 07:14:40;;;;;;;11.47;7.03;;;;;;;-144.19;100.00;79142.91;6155166;23;20261;-89
2022/01/24 07:17:15;;;;;;;11.50;8.18;;;;;;;-144.19;100.00;79150.78;6129543;23;20013;-88
2022/01/24 07:19:42;;;;;;;12.35;7.95;;;;;;;-144.19;100.00;79144.88;6128573;23;20018;-89
2022/01/24 07:22:08;;;;;;;12.27;7.30;;;;;;;-144.19;100.00;79142.91;6128986;23;20097;-90
2022/01/24 07:24:35;;;;;;;12.43;7.68;;;;;;;-144.19;100.00;79137.00;6154766;23;20028;-88
2022/01/24 07:27:02;;;;;;;10.65;6.90;;;;;;;-144.19;100.00;79146.84;6155085;23;20025;-90
2022/01/24 07:29:29;;;;;;;11.25;7.70;;;;;;;-144.19;100.00;79146.84;6156413;23;20470;-88
2022/01/24 07:31:56;;;;;;;13.57;7.75;;;;;;;-144.19;100.00;79144.88;6155361;23;20017;-90
2022/01/24 07:34:22;;;;;;;12.77;8.18;;;;;;;-144.19;100.00;79148.81;6130298;23;20031;-89
2022/01/24 07:36:50;;;;;;;12.97;8.53;;;;;;;-144.19;100.00;79154.72;6130199;23;20014;-88
2022/01/24 07:39:17;;;;;;;17.92;9.20;;;;;;;-144.19;100.00;79146.84;6154864;23;20077;-88
2022/01/24 07:41:47;;;;;;;12.30;8.43;;;;;;;-144.19;100.00;79146.84;6130582;23;20032;-88
2022/01/24 07:44:15;;;;;;;16.40;10.25;;;;;;;-144.19;100.00;79146.84;6156130;23;20021;-90
2022/01/24 07:46:42;;;;;;;15.30;9.95;;;;;;;-144.19;100.00;79154.72;6130196;23;20037;-83
2022/01/24 07:49:11;;;;;;;15.25;9.32;;;;;;;-144.19;100.00;79142.91;6129724;23;20021;-86
2022/01/24 07:51:39;;;;;;;15.57;8.95;;;;;;;-144.19;100.00;79144.88;6129706;23;20025;-88
2022/01/24 07:54:06;;;;;;;14.40;8.75;;;;;;;-144.19;100.00;79146.84;6154769;23;20025;-88
2022/01/24 07:56:32;;;;;;;11.50;8.00;;;;;;;-144.19;100.00;79166.56;6129083;23;20020;-87
2022/01/24 07:59:20;;;;;;;12.60;7.95;;;;;;;-144.19;100.00;79162.63;6153127;23;20025;-84
2022/01/24 08:01:52;;;;;;;11.85;8.18;;;;;;;-144.19;100.00;79146.84;6176708;23;20021;-84
2022/01/24 08:04:19;;;;;;;12.43;8.75;;;;;;;-144.19;100.00;79162.63;6175318;23;20033;-84
2022/01/24 08:06:47;;;;;;;13.98;8.13;;;;;;;-144.19;100.00;79154.72;6176219;23;20021;-84
2022/01/24 08:09:14;;;;;;;11.40;7.95;;;;;;;-144.19;100.00;79146.84;6175636;23;20016;-84
2022/01/24 08:11:44;;;;;;;12.82;8.30;;;;;;;-144.19;100.00;79135.03;6176150;23;20022;-84
2022/01/24 08:14:11;;;;;;;;;;;;;;;-144.19;100.00;79142.91;6177056;23;20076;-84
2022/01/24 08:16:40;;;;;;;12.93;8.32;;;;;;;-144.19;100.00;79164.59;6175733;23;19916;-84
2022/01/24 08:19:10;;;;;;;18.05;8.85;;;;;;;-144.19;100.00;79146.84;6174998;23;20081;-84
2022/01/24 08:21:37;;;;;;;12.20;8.55;;;;;;;-144.19;100.00;79138.97;6176193;23;20021;-84
2022/01/24 08:24:07;;;;;;;14.68;9.25;;;;;;;-144.19;100.00;79131.09;6175560;23;20021;-84
2022/01/24 08:26:38;;;;;;;18.00;9.18;;;;;;;-144.19;100.00;79129.13;6176821;23;20018;-84
2022/01/24 08:29:06;;;;;;;15.95;9.52;;;;;;;-144.19;100.00;79119.28;6175763;23;20021;-84
2022/01/24 08:31:36;;;;;;;13.60;8.55;;;;;;;-144.19;100.00;79115.34;6178244;23;20018;-84
2022/01/24 08:34:03;;;;;;;13.43;8.90;;;;;;;-144.19;100.00;79103.53;6178422;23;20032;-84
2022/01/24 08:36:30;;;;;;;;;;;;;;;-144.19;100.00;79117.31;6179616;23;20017;-84
2022/01/24 08:39:05;;;;;;;14.02;9.55;;;;;;;-144.19;100.00;79119.28;6176690;23;20293;-84
2022/01/24 08:44:20;;;;;;;17.02;10.82;;;;;;;-144.19;100.00;79119.28;6177256;23;20331;-84
2022/01/24 08:46:48;;;;;;;17.33;10.98;;;;;;;-144.19;100.00;79107.47;6175947;23;20056;-84
2022/01/24 08:49:17;;;;;;;17.02;9.95;;;;;;;-144.19;100.00;79109.44;6175464;23;20037;-84
2022/01/24 08:51:45;;;;;;;17.83;11.27;;;;;;;-144.19;100.00;79119.28;6175959;23;20077;-84
2022/01/24 08:54:31;;;;;;;15.93;10.70;;;;;;;-144.19;100.00;79113.38;6178159;23;20069;-84
2022/01/24 08:56:59;;;;;;;16.23;11.55;;;;;;;-144.19;100.00;79115.34;6176065;23;20045;-84
2022/01/24 08:59:31;;;;;;;;;;;;;;;-144.19;100.00;79105.50;6174142;23;20030;-83
2022/01/24 09:02:00;;;;;;;18.98;11.23;;;;;;;-144.19;100.00;79099.59;6175348;23;19911;-84
2022/01/24 09:04:29;;;;;;;17.42;11.23;;;;;;;-144.19;100.00;79087.78;6175961;23;20076;-84
2022/01/24 09:07:02;;;;;;;19.05;11.48;;;;;;;-144.19;100.00;79099.59;6175613;23;20048;-84
2022/01/24 09:09:34;;;;;;;17.52;11.88;;;;;;;-144.19;100.00;79097.63;6175859;23;20037;-84
2022/01/24 09:12:05;;;;;;;16.00;9.75;;;;;;;-144.19;100.00;79087.78;6176633;23;20033;-84
2022/01/24 09:14:33;;;;;;;18.08;11.18;;;;;;;-144.19;100.00;79079.88;6175615;23;20021;-84
2022/01/24 09:17:01;;;;;;;20.08;11.82;;;;;;;-144.19;100.00;79068.06;6175886;23;20018;-83
2022/01/24 09:19:33;;;;;;;16.85;10.63;;;;;;;-144.19;100.00;79097.63;6174998;23;20041;-84
2022/01/24 09:22:01;;;;;;;21.23;11.85;;;;;;;-144.19;100.00;79103.53;6175506;23;20367;-84
2022/01/24 09:24:28;;;;;;;18.48;10.98;;;;;;;-144.19;100.00;79107.47;6200961;23;20053;-84
2022/01/24 09:26:55;;;;;;;;;;;;;;;-144.19;100.00;79101.56;6176796;23;20025;-83
2022/01/24 09:29:22;;;;;;;17.40;11.40;;;;;;;-144.19;100.00;79091.72;6178129;23;19928;-84
2022/01/24 09:31:49;;;;;;;17.00;10.40;;;;;;;-144.19;100.00;79095.66;6175935;23;20077;-83
2022/01/24 09:34:20;;;;;;;16.73;10.85;;;;;;;-144.19;100.00;79091.72;6173806;23;20030;-83
2022/01/24 09:36:48;;;;;;;19.90;11.77;;;;;;;-144.19;100.00;79095.66;6172658;23;20028;-83
2022/01/24 09:39:21;;;;;;;21.70;11.55;;;;;;;-144.19;100.00;79077.91;6175060;23;20036;-83
2022/01/24 09:41:48;;;;;;;17.05;11.05;;;;;;;-144.19;100.00;79075.94;6176198;23;20036;-83
2022/01/24 09:44:33;;;;;;;15.55;10.50;;;;;;;-144.19;100.00;79052.31;6176008;23;20025;-83
2022/01/24 09:47:03;;;;;;;15.20;10.30;;;;;;;-144.19;100.00;79040.50;6175702;23;20021;-83
2022/01/24 09:49:36;;;;;;;14.70;9.65;;;;;;;-144.19;100.00;79052.31;6176085;23;20068;-83
2022/01/24 09:52:07;;;;;;;14.80;10.50;;;;;;;-144.19;100.00;79050.34;6175946;23;20022;-83
2022/01/24 09:54:34;;;;;;;16.40;9.95;;;;;;;-144.19;100.00;79072.00;6176409;23;20096;-83
2022/01/24 09:57:03;;;;;;;;;;;;;;;-144.19;100.00;79064.13;6178730;23;20021;-83
2022/01/24 09:59:32;;;;;;;15.07;9.57;;;;;;;-144.19;100.00;79087.78;6177990;23;19917;-85
2022/01/24 10:01:59;;;;;;;15.18;9.57;;;;;;;-144.19;100.00;79073.97;6152494;23;20077;-85
2022/01/24 10:04:27;;;;;;;14.32;9.95;;;;;;;-144.19;100.00;79064.13;6153240;23;20058;-85
2022/01/24 10:06:59;;;;;;;15.27;9.88;;;;;;;-144.19;100.00;79064.13;6153900;23;20022;-85
2022/01/24 10:09:30;;;;;;;17.80;11.40;;;;;;;-144.19;100.00;79058.22;6151673;23;20045;-83
2022/01/24 10:12:29;;;;;;;16.27;10.57;;;;;;;-144.19;100.00;79036.56;6178968;23;20021;-83
2022/01/24 10:17:46;;;;;;;14.30;10.18;;;;;;;-144.19;100.00;79066.09;6178894;23;20099;-83
2022/01/24 10:20:41;;;;;;;13.43;10.13;;;;;;;-144.19;100.00;79040.50;6178646;23;20036;-83
2022/01/24 10:23:18;;;;;;;14.48;8.98;;;;;;;-144.19;100.00;79068.06;6153195;23;20021;-83
2022/01/24 10:26:00;;;;;;;13.05;8.68;;;;;;;-144.19;100.00;79081.84;6153307;23;20025;-84
2022/01/24 10:28:33;;;;;;;14.30;10.07;;;;;;;-144.19;100.00;79068.06;6151695;23;20018;-83
2022/01/24 10:31:13;;;;;;;12.80;9.85;;;;;;;-144.19;100.00;79052.31;6177807;23;20058;-83
2022/01/24 10:33:53;;;;;;;12.48;9.00;;;;;;;-144.19;100.00;79032.63;6177002;23;20022;-83
2022/01/24 10:36:33;;;;;;;15.38;8.30;;;;;;;-144.19;100.00;79064.13;6154527;23;20045;-83
2022/01/24 10:45:21;;;;;;;12.57;8.70;;;;;;;-144.19;100.00;79030.66;6178620;23;20025;-82
2022/01/24 10:47:52;;;;;;;12.68;8.77;;;;;;;-144.19;100.00;79046.41;6177247;23;20017;-82
2022/01/24 10:50:29;;;;;;;12.07;8.63;;;;;;;-144.19;100.00;79024.75;6152234;23;20031;-85
2022/01/24 10:52:58;;;;;;;10.50;6.97;;;;;;;-144.19;100.00;79042.47;6152409;23;20073;-85
2022/01/24 10:55:29;;;;;;;15.27;7.20;;;;;;;-144.19;100.00;79034.59;6152798;23;20040;-85
2022/01/24 10:58:18;;;;;;;14.45;7.07;;;;;;;-144.19;100.00;79072.00;6152804;23;20028;-85
2022/01/24 11:00:46;;;;;;;10.60;6.63;;;;;;;-144.19;100.00;79066.09;6153437;23;20025;-85
2022/01/24 11:03:19;;;;;;;9.82;6.72;;;;;;;-144.19;100.00;79064.13;6152721;23;20454;-85
2022/01/24 11:05:46;;;;;;;10.07;7.68;;;;;;;-144.19;100.00;79058.22;6151725;23;20242;-86
2022/01/24 11:08:16;;;;;;;14.13;6.60;;;;;;;-144.19;100.00;79077.91;6152805;23;20017;-85
2022/01/24 11:10:45;;;;;;;11.45;8.02;;;;;;;-144.19;100.00;79089.72;6152040;23;20021;-85
2022/01/24 11:13:14;;;;;;;10.32;6.40;;;;;;;-144.19;100.00;79070.03;6152638;23;20025;-85
2022/01/24 11:15:54;;;;;;;10.98;6.93;;;;;;;-144.19;100.00;79079.88;6152781;23;20025;-85
2022/01/24 11:18:24;;;;;;;9.77;7.20;;;;;;;-144.19;100.00;79056.25;6153641;23;20037;-85
2022/01/24 11:21:01;;;;;;;13.48;8.02;;;;;;;-144.19;100.00;79072.00;6177919;23;20036;-85
2022/01/24 11:23:29;;;;;;;11.23;7.00;;;;;;;-144.19;100.00;79052.31;6178090;23;20021;-85
2022/01/24 11:26:01;;;;;;;13.48;7.68;;;;;;;-144.19;100.00;79036.56;6176094;23;20069;-85
2022/01/24 11:28:28;;;;;;;13.02;8.13;;;;;;;-144.19;100.00;79036.56;6151044;23;20021;-85
2022/01/24 11:31:19;;;;;;;12.40;8.30;;;;;;;-144.19;100.00;79042.47;6176476;23;20032;-85
2022/01/24 11:34:04;;;;;;;12.52;8.27;;;;;;;-144.19;100.00;79028.69;6179010;23;20077;-85
2022/01/24 11:36:40;;;;;;;14.63;8.35;;;;;;;-144.19;100.00;78989.28;6177322;23;20026;-83
2022/01/24 11:39:08;;;;;;;10.45;7.25;;;;;;;-144.19;100.00;79044.44;6152210;23;20025;-84
2022/01/24 11:41:39;;;;;;;12.30;8.05;;;;;;;-144.19;100.00;79044.44;6152330;23;20089;-82
2022/01/24 11:44:15;;;;;;;11.32;8.00;;;;;;;-144.19;100.00;78993.22;6151798;23;20025;-83
2022/01/24 11:46:52;;;;;;;15.95;8.68;;;;;;;-144.19;100.00;79020.81;6151498;23;20022;-82
2022/01/24 11:49:32;;;;;;;11.65;8.05;;;;;;;-144.19;100.00;79016.84;6152359;23;20036;-82
2022/01/24 11:52:11;;;;;;;12.98;8.45;;;;;;;-144.19;100.00;78985.34;6152407;23;20021;-85
2022/01/24 11:54:54;;;;;;;13.27;8.90;;;;;;;-144.19;100.00;78993.22;6177255;23;20029;-85
2022/01/24 11:57:45;;;;;;;14.50;9.60;;;;;;;-144.19;100.00;78993.22;6151946;23;20474;-86
2022/01/24 12:00:12;;;;;;;15.60;10.10;;;;;;;-144.19;100.00;78979.44;6145753;23;20100;-85
2022/01/24 12:02:55;;;;;;;17.40;9.68;;;;;;;-144.19;100.00;78991.25;6147331;23;20056;-85
2022/01/24 12:05:51;;;;;;;14.40;9.32;;;;;;;-144.19;100.00;78999.13;6147174;23;20018;-85
2022/01/24 12:08:43;;;;;;;13.65;9.40;;;;;;;-144.19;100.00;79030.66;6125796;23;20006;-85
2022/01/24 12:11:18;;;;;;;15.93;9.63;;;;;;;-144.19;100.00;79016.84;6122019;23;20025;-85
2022/01/24 12:13:55;;;;;;;14.50;9.80;;;;;;;-144.19;100.00;79024.75;6121672;23;20048;-86
2022/01/24 12:16:37;;;;;;;17.17;10.73;;;;;;;-144.19;100.00;79016.84;6145904;23;20026;-86
2022/01/24 12:19:10;;;;;;;16.95;10.85;;;;;;;-144.19;100.00;79007.00;6121265;23;20022;-85
2022/01/24 12:21:39;;;;;;;18.70;11.07;;;;;;;-144.19;100.00;79030.66;6122305;23;20081;-83
2022/01/24 12:24:11;;;;;;;17.67;11.90;;;;;;;-144.19;100.00;79020.81;6145110;23;20575;-85
2022/01/24 12:26:46;;;;;;;18.30;11.82;;;;;;;-144.19;100.00;79012.91;6122362;23;20097;-86
2022/01/24 12:29:20;;;;;;;16.48;11.48;;;;;;;-144.19;100.00;79008.97;6143212;23;20459;-86
2022/01/24 12:31:58;;;;;;;22.50;11.85;;;;;;;-144.19;100.00;79010.94;6145794;23;20021;-85
2022/01/24 12:34:26;;;;;;;24.38;12.85;;;;;;;-144.19;100.00;79005.03;6121819;23;20017;-85
2022/01/24 12:37:00;;;;;;;;;;;;;;;-144.19;100.00;79014.88;6145159;23;20022;-86
2022/01/24 12:39:27;;;;;;;27.67;18.02;;;;;;;-144.19;100.00;79024.75;6117587;23;19921;-85
2022/01/24 12:41:59;;;;;;;21.85;12.98;;;;;;;-144.19;100.00;79008.97;6145488;23;20029;-85
2022/01/24 12:47:17;;;;;;;17.38;12.13;;;;;;;-144.19;100.00;79012.91;6146505;23;20021;-86
2022/01/24 12:49:46;;;;;;;19.67;13.45;;;;;;;-144.19;100.00;78979.44;6146576;23;20037;-86
2022/01/24 12:52:21;;;;;;;21.23;12.82;;;;;;;-144.19;100.00;78985.34;6146360;23;20040;-86
2022/01/24 12:54:51;;;;;;;21.55;13.43;;;;;;;-144.19;100.00;78993.22;6147359;23;20028;-87
2022/01/24 12:57:22;;;;;;;16.13;11.48;;;;;;;-144.19;100.00;78993.22;6120382;23;20022;-84